createdAt,value
2019-04-10T00:01:26.308Z,17.83
2019-04-10T00:03:54.746Z,17.50
2019-04-10T00:06:23.747Z,18.90
2019-04-10T00:08:52.785Z,16.57
2019-04-10T00:11:21.390Z,16.97
2019-04-10T00:13:51.555Z,17.43
2019-04-10T00:16:22.492Z,18.20
2019-04-10T00:18:50.910Z,16.63
2019-04-10T00:21:19.469Z,18.07
2019-04-10T00:23:49.021Z,17.60
2019-04-10T00:26:18.144Z,17.50
2019-04-10T00:28:47.641Z,16.97
2019-04-10T00:31:16.298Z,17.80
2019-04-10T00:33:45.126Z,16.83
2019-04-10T00:36:14.170Z,17.80
2019-04-10T00:38:44.201Z,18.53
2019-04-10T00:41:12.841Z,17.30
2019-04-10T00:43:41.567Z,18.03
2019-04-10T00:46:10.304Z,18.23
2019-04-10T00:48:39.760Z,17.17
2019-04-10T00:51:08.857Z,17.93
2019-04-10T00:53:39.201Z,17.47
2019-04-10T00:56:08.411Z,17.70
2019-04-10T00:58:37.515Z,18.17
2019-04-10T01:01:06.209Z,17.47
2019-04-10T01:03:43.939Z,18.73
2019-04-10T01:06:13.652Z,18.17
2019-04-10T01:08:42.722Z,17.90
2019-04-10T01:11:11.387Z,17.83
2019-04-10T01:13:41.012Z,17.93
2019-04-10T01:16:09.714Z,17.90
2019-04-10T01:18:38.167Z,17.87
2019-04-10T01:21:08.200Z,17.77
2019-04-10T01:23:37.914Z,18.07
2019-04-10T01:26:07.234Z,18.40
2019-04-10T01:28:36.688Z,17.67
2019-04-10T01:31:05.319Z,17.77
2019-04-10T01:33:33.749Z,18.97
2019-04-10T01:36:02.770Z,17.80
2019-04-10T01:38:31.490Z,18.53
2019-04-10T01:40:59.936Z,18.53
2019-04-10T01:43:28.493Z,18.83
2019-04-10T01:45:57.907Z,19.23
2019-04-10T01:48:26.508Z,18.83
2019-04-10T01:50:54.973Z,19.73
2019-04-10T01:53:23.839Z,18.17
2019-04-10T01:55:53.406Z,18.23
2019-04-10T01:58:23.562Z,19.67
2019-04-10T02:01:08.141Z,18.17
2019-04-10T02:03:36.583Z,19.03
2019-04-10T02:06:05.197Z,18.30
2019-04-10T02:08:34.080Z,18.77
2019-04-10T02:11:04.796Z,18.83
2019-04-10T02:13:34.007Z,18.80
2019-04-10T02:16:04.127Z,18.27
2019-04-10T02:18:33.141Z,18.43
2019-04-10T02:21:01.772Z,19.43
2019-04-10T02:23:30.381Z,17.90
2019-04-10T02:25:59.129Z,18.23
2019-04-10T02:28:27.828Z,18.67
2019-04-10T02:30:56.745Z,17.27
2019-04-10T02:33:27.444Z,17.70
2019-04-10T02:35:57.158Z,18.97
2019-04-10T02:38:38.652Z,18.70
2019-04-10T02:40:57.426Z,18.33
2019-04-10T02:43:27.297Z,18.20
2019-04-10T02:45:57.564Z,19.60
2019-04-10T02:48:27.560Z,18.90
2019-04-10T02:50:57.621Z,19.00
2019-04-10T02:53:27.646Z,18.27
2019-04-10T02:55:58.023Z,19.33
2019-04-10T02:58:26.585Z,19.83
2019-04-10T03:00:56.326Z,17.53
2019-04-10T03:03:25.476Z,17.73
2019-04-10T03:05:54.338Z,18.60
2019-04-10T03:08:39.636Z,18.33
2019-04-10T03:10:59.011Z,18.23
2019-04-10T03:13:23.959Z,18.23
2019-04-10T03:15:53.527Z,19.62
2019-04-10T03:18:22.979Z,19.30
2019-04-10T03:20:51.626Z,18.40
2019-04-10T03:23:20.878Z,17.83
2019-04-10T03:25:49.690Z,18.33
2019-04-10T03:28:18.701Z,18.53
2019-04-10T03:30:49.370Z,17.90
2019-04-10T03:33:31.089Z,17.97
2019-04-10T03:35:58.977Z,18.30
2019-04-10T03:38:27.884Z,18.90
2019-04-10T03:40:56.585Z,20.00
2019-04-10T03:43:25.852Z,18.20
2019-04-10T03:45:55.134Z,18.97
2019-04-10T03:48:23.794Z,18.30
2019-04-10T03:50:52.260Z,18.00
2019-04-10T03:53:22.144Z,19.33
2019-04-10T03:55:52.111Z,18.20
2019-04-10T03:58:20.631Z,17.90
2019-04-10T04:00:50.545Z,18.00
2019-04-10T04:03:20.319Z,19.57
2019-04-10T04:05:49.139Z,18.90
2019-04-10T04:08:17.579Z,19.85
2019-04-10T04:10:46.140Z,18.93
2019-04-10T04:13:15.327Z,17.80
2019-04-10T04:15:44.400Z,17.83
2019-04-10T04:18:13.049Z,18.53
2019-04-10T04:20:41.555Z,17.73
2019-04-10T04:23:10.109Z,18.80
2019-04-10T04:25:38.746Z,18.83
2019-04-10T04:28:07.393Z,18.63
2019-04-10T04:30:36.045Z,18.47
2019-04-10T04:33:04.801Z,17.80
2019-04-10T04:35:34.516Z,18.23
2019-04-10T04:38:03.376Z,18.53
2019-04-10T04:40:31.877Z,18.53
2019-04-10T04:43:00.383Z,18.23
2019-04-10T04:45:29.926Z,17.90
2019-04-10T04:48:00.170Z,19.70
2019-04-10T04:50:29.277Z,18.37
2019-04-10T04:52:58.315Z,17.50
2019-04-10T04:55:27.242Z,17.03
2019-04-10T04:57:55.927Z,17.60
2019-04-10T05:00:25.685Z,17.30
2019-04-10T05:02:54.272Z,17.50
2019-04-10T05:05:23.004Z,16.30
2019-04-10T05:07:59.425Z,16.60
2019-04-10T05:10:23.497Z,17.07
2019-04-10T05:12:51.981Z,16.50
2019-04-10T05:15:20.652Z,16.73
2019-04-10T05:17:50.850Z,16.60
2019-04-10T05:20:19.332Z,17.20
2019-04-10T05:22:47.883Z,17.27
2019-04-10T05:25:16.798Z,17.20
2019-04-10T05:27:47.396Z,17.63
2019-04-10T05:30:16.407Z,17.53
2019-04-10T05:32:47.277Z,16.47
2019-04-10T05:35:17.268Z,16.73
2019-04-10T05:37:45.966Z,17.27
2019-04-10T05:40:15.255Z,16.83
2019-04-10T05:42:44.940Z,16.50
2019-04-10T05:45:13.511Z,16.53
2019-04-10T05:47:42.307Z,17.03
2019-04-10T05:50:11.005Z,16.13
2019-04-10T05:52:39.615Z,16.33
2019-04-10T05:55:08.509Z,16.67
2019-04-10T05:57:37.363Z,16.67
2019-04-10T06:00:10.418Z,16.50
2019-04-10T06:02:39.817Z,16.10
2019-04-10T06:05:09.680Z,15.50
2019-04-10T06:07:38.575Z,16.70
2019-04-10T06:10:10.031Z,15.53
2019-04-10T06:12:39.397Z,16.57
2019-04-10T06:15:07.983Z,15.97
2019-04-10T06:17:38.591Z,15.97
2019-04-10T06:20:09.175Z,16.20
2019-04-10T06:22:38.912Z,15.80
2019-04-10T06:25:10.604Z,15.97
2019-04-10T06:27:38.823Z,15.80
2019-04-10T06:30:09.946Z,16.40
2019-04-10T06:32:39.642Z,16.07
2019-04-10T06:35:08.921Z,16.33
2019-04-10T06:37:38.018Z,15.63
2019-04-10T06:40:15.084Z,15.93
2019-04-10T06:42:46.463Z,16.47
2019-04-10T06:45:07.625Z,15.33
2019-04-10T06:47:36.279Z,16.53
2019-04-10T06:50:08.585Z,15.90
2019-04-10T06:52:37.113Z,17.07
2019-04-10T06:55:06.182Z,15.57
2019-04-10T06:57:47.655Z,16.07
2019-04-10T07:00:12.197Z,17.30
2019-04-10T07:02:38.782Z,15.57
2019-04-10T07:05:10.224Z,16.57
2019-04-10T07:07:49.499Z,16.97
2019-04-10T07:10:20.613Z,16.27
2019-04-10T07:12:39.558Z,16.13
2019-04-10T07:15:08.517Z,16.33
2019-04-10T07:17:40.627Z,17.07
2019-04-10T07:20:07.439Z,16.47
2019-04-10T07:22:36.619Z,17.50
2019-04-10T07:25:09.277Z,17.07
2019-04-10T07:27:38.513Z,16.30
2019-04-10T07:30:07.761Z,16.37
2019-04-10T07:32:36.435Z,17.50
2019-04-10T07:35:06.745Z,17.60
2019-04-10T07:37:36.224Z,16.97
2019-04-10T07:40:07.952Z,16.80
2019-04-10T07:42:39.770Z,17.00
2019-04-10T07:45:08.015Z,16.00
2019-04-10T07:47:37.972Z,15.83
2019-04-10T07:50:08.952Z,17.73
2019-04-10T07:52:38.919Z,16.67
2019-04-10T07:55:08.513Z,18.53
2019-04-10T07:57:38.404Z,18.07
2019-04-10T08:00:09.096Z,17.13
2019-04-10T08:02:38.491Z,15.67
2019-04-10T08:05:08.186Z,17.57
2019-04-10T08:07:38.884Z,16.10
2019-04-10T08:10:07.982Z,16.27
2019-04-10T08:12:42.382Z,15.90
2019-04-10T08:15:07.539Z,16.30
2019-04-10T08:17:36.861Z,17.00
2019-04-10T08:20:05.921Z,16.90
2019-04-10T08:22:34.986Z,16.10
2019-04-10T08:25:06.422Z,15.37
2019-04-10T08:27:36.196Z,16.57
2019-04-10T08:30:07.393Z,15.70
2019-04-10T08:32:53.524Z,15.53
2019-04-10T08:35:11.298Z,15.67
2019-04-10T08:37:41.071Z,15.17
2019-04-10T08:40:11.418Z,16.00
2019-04-10T08:42:44.442Z,17.23
2019-04-10T08:45:11.441Z,16.33
2019-04-10T08:47:40.409Z,15.30
2019-04-10T08:50:11.788Z,14.20
2019-04-10T08:52:41.081Z,14.87
2019-04-10T08:55:18.248Z,16.23
2019-04-10T08:57:47.112Z,16.43
2019-04-10T09:00:16.496Z,17.33
2019-04-10T09:02:46.464Z,14.93
2019-04-10T09:05:15.405Z,18.70
2019-04-10T09:07:44.318Z,15.97
2019-04-10T09:10:14.277Z,15.80
2019-04-10T09:12:43.379Z,15.80
2019-04-10T09:15:12.098Z,15.27
2019-04-10T09:17:41.729Z,14.90
2019-04-10T09:20:10.863Z,14.17
2019-04-10T09:23:07.667Z,14.43
2019-04-10T09:25:13.465Z,13.67
2019-04-10T09:27:44.225Z,14.50
2019-04-10T09:30:14.332Z,14.53
2019-04-10T09:32:42.970Z,15.20
2019-04-10T09:35:12.131Z,14.90
2019-04-10T09:37:42.618Z,13.30
2019-04-10T09:40:11.969Z,16.60
2019-04-10T09:42:43.811Z,15.57
2019-04-10T09:45:13.531Z,14.23
2019-04-10T09:47:44.018Z,14.63
2019-04-10T09:50:17.268Z,18.73
2019-04-10T09:52:48.270Z,13.87
2019-04-10T09:55:17.997Z,14.40
2019-04-10T09:57:48.276Z,13.47
2019-04-10T10:00:21.130Z,13.80
2019-04-10T10:02:50.728Z,14.83
2019-04-10T10:05:20.282Z,14.30
2019-04-10T10:07:49.279Z,14.57
2019-04-10T10:10:18.655Z,14.73
2019-04-10T10:12:48.986Z,13.47
2019-04-10T10:15:18.890Z,13.27
2019-04-10T10:17:48.699Z,13.83
2019-04-10T10:20:17.537Z,14.07
2019-04-10T10:22:47.202Z,15.90
2019-04-10T10:25:17.289Z,13.53
2019-04-10T10:27:46.865Z,15.40
2019-04-10T10:30:17.542Z,15.90
2019-04-10T10:32:46.463Z,14.03
2019-04-10T10:35:15.026Z,15.20
2019-04-10T10:37:44.137Z,14.27
2019-04-10T10:40:12.917Z,14.63
2019-04-10T10:42:41.629Z,14.87
2019-04-10T10:45:10.665Z,14.33
2019-04-10T10:47:40.331Z,13.37
2019-04-10T10:50:09.189Z,16.07
2019-04-10T10:52:37.884Z,16.07
2019-04-10T10:55:07.610Z,15.00
2019-04-10T10:57:37.375Z,15.30
2019-04-10T11:00:08.390Z,16.07
2019-04-10T11:02:38.064Z,16.20
2019-04-10T11:05:07.194Z,17.37
2019-04-10T11:07:36.239Z,16.13
2019-04-10T11:10:06.811Z,22.87
2019-04-10T11:12:38.225Z,17.43
2019-04-10T11:15:07.812Z,16.47
2019-04-10T11:17:37.990Z,16.20
2019-04-10T11:20:08.380Z,15.50
2019-04-10T11:22:37.733Z,15.40
2019-04-10T11:25:06.469Z,15.07
2019-04-10T11:27:35.639Z,16.23
2019-04-10T11:30:10.374Z,16.87
2019-04-10T11:32:39.794Z,15.63
2019-04-10T11:35:08.699Z,15.90
2019-04-10T11:37:44.476Z,16.17
2019-04-10T11:40:08.757Z,16.03
2019-04-10T11:42:39.732Z,16.73
2019-04-10T11:45:08.200Z,15.23
2019-04-10T11:47:38.877Z,16.10
2019-04-10T11:50:10.319Z,16.67
2019-04-10T11:52:42.497Z,15.70
2019-04-10T11:57:42.719Z,15.60
2019-04-10T12:00:17.533Z,17.63
2019-04-10T12:02:47.314Z,16.27
2019-04-10T12:05:19.059Z,16.30
2019-04-10T12:12:45.914Z,17.80
2019-04-10T12:15:17.133Z,17.30
2019-04-10T12:17:46.502Z,17.57
2019-04-10T12:20:16.649Z,17.03
2019-04-10T12:22:46.202Z,17.13
2019-04-10T12:25:14.939Z,17.37
2019-04-10T12:27:43.654Z,19.20
2019-04-10T12:30:13.221Z,19.33
2019-04-10T12:32:42.988Z,19.03
2019-04-10T12:35:11.670Z,20.80
2019-04-10T12:37:41.240Z,20.17
2019-04-10T12:40:09.997Z,24.33
2019-04-10T12:42:38.732Z,17.40
2019-04-10T12:45:08.179Z,17.57
2019-04-10T12:47:37.678Z,19.73
2019-04-10T12:50:09.379Z,20.30
2019-04-10T12:52:38.764Z,18.53
2019-04-10T12:55:10.547Z,17.87
2019-04-10T12:57:39.212Z,17.53
2019-04-10T13:00:12.014Z,18.10
2019-04-10T13:02:40.833Z,18.20
2019-04-10T13:05:09.678Z,17.33
2019-04-10T13:07:38.404Z,16.83
2019-04-10T13:10:07.235Z,16.83
2019-04-10T13:12:35.774Z,16.43
2019-04-10T13:15:08.806Z,16.77
2019-04-10T13:17:38.524Z,17.87
2019-04-10T13:20:09.379Z,17.23
2019-04-10T13:22:38.125Z,17.83
2019-04-10T13:25:06.743Z,19.73
2019-04-10T13:27:35.381Z,18.63
2019-04-10T13:30:07.450Z,18.67
2019-04-10T13:32:36.130Z,17.57
2019-04-10T13:35:06.597Z,18.00
2019-04-10T13:37:35.853Z,17.93
2019-04-10T13:40:08.301Z,17.07
2019-04-10T13:42:37.156Z,16.83
2019-04-10T13:45:07.565Z,17.17
2019-04-10T13:47:36.332Z,16.30
2019-04-10T13:50:06.898Z,17.13
2019-04-10T13:52:38.418Z,18.30
2019-04-10T13:55:08.549Z,17.57
2019-04-10T13:57:37.728Z,19.67
2019-04-10T14:00:07.503Z,18.47
2019-04-10T14:02:37.539Z,17.50
2019-04-10T14:05:09.100Z,17.17
2019-04-10T14:07:37.673Z,17.97
2019-04-10T14:10:10.389Z,17.17
2019-04-10T14:12:39.149Z,17.23
2019-04-10T14:15:07.862Z,17.53
2019-04-10T14:17:37.505Z,17.93
2019-04-10T14:20:06.942Z,18.33
2019-04-10T14:22:37.963Z,17.63
2019-04-10T14:25:09.481Z,17.80
2019-04-10T14:27:38.942Z,19.00
2019-04-10T14:30:09.780Z,17.40
2019-04-10T14:32:39.640Z,18.77
2019-04-10T14:35:09.897Z,17.60
2019-04-10T14:37:38.527Z,17.27
2019-04-10T14:40:08.416Z,17.67
2019-04-10T14:42:38.260Z,17.40
2019-04-10T14:45:09.030Z,21.00
2019-04-10T14:47:37.883Z,18.83
2019-04-10T14:50:07.544Z,18.47
2019-04-10T14:52:37.165Z,18.53
2019-04-10T14:55:06.205Z,18.93
2019-04-10T14:57:35.086Z,18.43
2019-04-10T15:00:09.210Z,20.97
2019-04-10T15:02:39.645Z,17.67
2019-04-10T15:05:08.582Z,19.57
2019-04-10T15:07:37.366Z,23.90
2019-04-10T15:10:06.285Z,17.50
2019-04-10T15:12:34.843Z,17.17
2019-04-10T15:15:03.944Z,16.20
2019-04-10T15:17:32.888Z,16.43
2019-04-10T15:20:01.860Z,15.53
2019-04-10T15:22:31.667Z,16.27
2019-04-10T15:25:01.410Z,15.83
2019-04-10T15:27:30.231Z,16.00
2019-04-10T15:29:58.925Z,15.50
2019-04-10T15:32:27.547Z,15.93
2019-04-10T15:34:56.052Z,16.57
2019-04-10T15:37:24.908Z,15.40
2019-04-10T15:39:53.937Z,14.57
2019-04-10T15:42:23.771Z,14.03
2019-04-10T15:44:52.734Z,15.03
2019-04-10T15:47:23.141Z,14.20
2019-04-10T15:49:51.858Z,13.50
2019-04-10T15:52:22.790Z,13.10
2019-04-10T15:54:53.421Z,14.57
2019-04-10T15:57:22.771Z,15.27
2019-04-10T15:59:52.441Z,15.23
2019-04-10T16:02:21.694Z,12.80
2019-04-10T16:04:51.075Z,14.07
2019-04-10T16:07:22.461Z,14.07
2019-04-10T16:09:54.623Z,14.33
2019-04-10T16:12:26.965Z,15.73
2019-04-10T16:14:55.638Z,14.67
2019-04-10T16:17:44.620Z,14.50
2019-04-10T16:20:15.512Z,15.28
2019-04-10T16:23:02.127Z,15.10
2019-04-10T16:25:30.799Z,15.60
2019-04-10T16:28:00.599Z,14.20
2019-04-10T16:30:29.317Z,15.53
2019-04-10T16:32:58.689Z,15.73
2019-04-10T16:35:27.470Z,16.37
2019-04-10T16:37:56.228Z,16.40
2019-04-10T16:40:24.782Z,15.17
2019-04-10T16:42:53.329Z,19.33
2019-04-10T16:45:22.357Z,15.13
2019-04-10T16:47:52.499Z,13.53
2019-04-10T16:50:21.853Z,14.77
2019-04-10T16:52:51.453Z,15.90
2019-04-10T16:55:20.681Z,14.93
2019-04-10T16:57:49.478Z,14.93
2019-04-10T17:00:19.546Z,14.13
2019-04-10T17:02:48.617Z,16.00
2019-04-10T17:05:18.519Z,14.10
2019-04-10T17:07:47.533Z,14.40
2019-04-10T17:10:22.577Z,15.53
2019-04-10T17:12:48.396Z,15.40
2019-04-10T17:15:18.372Z,13.80
2019-04-10T17:17:47.088Z,14.27
2019-04-10T17:20:16.007Z,19.67
2019-04-10T17:22:48.597Z,19.27
2019-04-10T17:25:15.160Z,20.40
2019-04-10T17:27:43.883Z,16.90
2019-04-10T17:30:13.571Z,16.47
2019-04-10T17:32:42.651Z,16.73
2019-04-10T17:35:13.668Z,20.23
2019-04-10T17:37:42.611Z,13.70
2019-04-10T17:40:27.425Z,16.43
2019-04-10T17:42:44.374Z,16.47
2019-04-10T17:45:14.170Z,15.50
2019-04-10T17:47:45.158Z,15.33
2019-04-10T17:50:16.237Z,13.57
2019-04-10T17:52:45.286Z,13.17
2019-04-10T17:55:14.118Z,13.40
2019-04-10T17:57:45.667Z,16.17
2019-04-10T18:00:21.498Z,12.03
2019-04-10T18:02:50.900Z,12.87
2019-04-10T18:05:20.338Z,11.73
2019-04-10T18:07:49.216Z,13.37
2019-04-10T18:10:18.360Z,12.67
2019-04-10T18:12:48.108Z,11.90
2019-04-10T18:15:16.897Z,13.13
2019-04-10T18:17:45.477Z,14.47
2019-04-10T18:20:14.017Z,13.97
2019-04-10T18:22:42.847Z,13.00
2019-04-10T18:25:11.882Z,13.60
2019-04-10T18:27:40.745Z,13.67
2019-04-10T18:30:09.984Z,14.55
2019-04-10T18:32:40.021Z,12.90
2019-04-10T18:35:08.912Z,12.20
2019-04-10T18:37:37.688Z,13.70
2019-04-10T18:40:07.304Z,14.10
2019-04-10T18:42:38.527Z,15.17
2019-04-10T18:45:07.699Z,18.73
2019-04-10T18:47:38.056Z,15.37
2019-04-10T18:50:07.821Z,22.35
2019-04-10T18:52:37.336Z,16.07
2019-04-10T18:55:08.232Z,14.73
2019-04-10T18:57:36.955Z,14.30
2019-04-10T19:00:12.283Z,13.93
2019-04-10T19:02:48.826Z,16.17
2019-04-10T19:05:19.435Z,15.33
2019-04-10T19:07:48.311Z,15.57
2019-04-10T19:10:17.846Z,15.80
2019-04-10T19:12:46.549Z,13.83
2019-04-10T19:15:15.177Z,12.33
2019-04-10T19:17:43.843Z,13.37
2019-04-10T19:20:14.013Z,14.03
2019-04-10T19:22:42.699Z,12.33
2019-04-10T19:25:11.350Z,13.27
2019-04-10T19:27:40.247Z,12.93
2019-04-10T19:30:10.986Z,11.40
2019-04-10T19:32:41.563Z,12.73
2019-04-10T19:35:10.863Z,11.47
2019-04-10T19:37:40.735Z,12.13
2019-04-10T19:40:11.161Z,18.40
2019-04-10T19:42:39.871Z,12.27
2019-04-10T19:45:09.763Z,12.00
2019-04-10T19:47:38.933Z,11.50
2019-04-10T19:50:08.756Z,10.73
2019-04-10T19:52:38.372Z,12.23
2019-04-10T19:55:11.410Z,13.10
2019-04-10T19:57:41.512Z,10.43
2019-04-10T20:00:14.611Z,11.00
2019-04-10T20:02:43.604Z,10.53
2019-04-10T20:05:12.879Z,11.70
2019-04-10T20:07:41.472Z,9.77
2019-04-10T20:10:10.898Z,11.23
2019-04-10T20:12:40.443Z,9.83
2019-04-10T20:15:10.040Z,10.93
2019-04-10T20:17:39.852Z,9.67
2019-04-10T20:20:10.916Z,9.60
2019-04-10T20:22:39.682Z,9.93
2019-04-10T20:25:10.371Z,9.97
2019-04-10T20:27:40.303Z,10.23
2019-04-10T20:30:10.158Z,10.30
2019-04-10T20:32:38.672Z,8.70
2019-04-10T20:35:07.801Z,9.50
2019-04-10T20:37:36.642Z,8.97
2019-04-10T20:40:06.150Z,9.03
2019-04-10T20:42:34.634Z,8.70
2019-04-10T20:45:03.630Z,8.63
2019-04-10T20:47:33.037Z,8.90
2019-04-10T20:50:01.974Z,9.50
2019-04-10T20:52:30.630Z,8.40
2019-04-10T20:54:59.544Z,8.33
2019-04-10T20:57:28.114Z,8.57
2019-04-10T20:59:57.355Z,9.03
2019-04-10T21:02:26.441Z,9.33
2019-04-10T21:05:01.446Z,9.57
2019-04-10T21:07:25.543Z,8.60
2019-04-10T21:09:54.465Z,8.10
2019-04-10T21:12:23.809Z,9.83
2019-04-10T21:14:52.615Z,9.97
2019-04-10T21:17:21.163Z,9.37
2019-04-10T21:19:51.610Z,10.30
2019-04-10T21:22:20.391Z,10.27
2019-04-10T21:24:49.907Z,9.67
2019-04-10T21:27:18.621Z,9.07
2019-04-10T21:30:01.843Z,8.03
2019-04-10T21:32:32.411Z,9.43
2019-04-10T21:35:03.894Z,10.90
2019-04-10T21:37:32.765Z,8.80
2019-04-10T21:40:02.608Z,9.80
2019-04-10T21:42:31.594Z,8.50
2019-04-10T21:45:00.154Z,14.23
2019-04-10T21:47:29.908Z,8.73
2019-04-10T21:49:58.549Z,8.60
2019-04-10T21:52:27.215Z,12.07
2019-04-10T21:55:00.046Z,7.40
2019-04-10T21:57:26.485Z,9.23
2019-04-10T21:59:56.033Z,9.10
2019-04-10T22:02:24.813Z,7.70
2019-04-10T22:04:53.499Z,8.17
2019-04-10T22:07:32.390Z,8.97
2019-04-10T22:10:05.655Z,7.97
2019-04-10T22:12:39.579Z,7.63
2019-04-10T22:15:08.613Z,8.33
2019-04-10T22:17:38.363Z,7.30
2019-04-10T22:20:07.587Z,7.00
2019-04-10T22:22:37.113Z,6.53
2019-04-10T22:25:07.440Z,6.83
2019-04-10T22:27:36.017Z,7.13
2019-04-10T22:30:06.755Z,8.80
2019-04-10T22:32:35.424Z,9.20
2019-04-10T22:35:05.574Z,6.97
2019-04-10T22:37:35.621Z,7.30
2019-04-10T22:40:06.577Z,6.43
2019-04-10T22:42:42.533Z,6.60
2019-04-10T22:45:27.397Z,6.80
2019-04-10T22:47:56.404Z,7.10
2019-04-10T22:50:25.041Z,6.43
2019-04-10T22:52:54.874Z,6.33
2019-04-10T22:55:23.931Z,6.27
2019-04-10T22:57:52.714Z,6.60
2019-04-10T23:00:26.005Z,6.37
2019-04-10T23:02:55.050Z,5.43
2019-04-10T23:05:24.590Z,5.77
2019-04-10T23:07:53.477Z,5.63
2019-04-10T23:10:22.160Z,6.30
2019-04-10T23:12:59.357Z,6.07
2019-04-10T23:15:21.380Z,5.77
2019-04-10T23:17:50.748Z,5.57
2019-04-10T23:20:19.582Z,6.13
2019-04-10T23:22:48.728Z,5.77
2019-04-10T23:25:19.070Z,5.73
2019-04-10T23:27:53.468Z,5.37
2019-04-10T23:30:21.687Z,5.03
2019-04-10T23:32:51.274Z,5.37
2019-04-10T23:35:21.176Z,5.00
2019-04-10T23:37:50.989Z,5.40
2019-04-10T23:40:21.030Z,5.57
2019-04-10T23:43:01.281Z,5.77
2019-04-10T23:45:19.793Z,5.30
2019-04-10T23:47:48.691Z,4.93
2019-04-10T23:50:18.444Z,5.80
2019-04-10T23:52:47.878Z,5.00
2019-04-10T23:55:17.639Z,5.17
2019-04-10T23:57:46.526Z,5.03
